sensor_id;sensor_type;location;lat;lon;timestamp;pressure;altitude;pressure_sealevel;temperature;humidity
11806;BME280;5960;42.602;23.482;2022-09-13T00:01:28;93259.13;;;15.02;72.53
11806;BME280;5960;42.602;23.482;2022-09-13T00:03:56;93261.94;;;15.08;72.30
11806;BME280;5960;42.602;23.482;2022-09-13T00:06:22;93253.16;;;14.88;72.89
11806;BME280;5960;42.602;23.482;2022-09-13T00:08:50;93257.69;;;15.00;72.63
11806;BME280;5960;42.602;23.482;2022-09-13T00:11:19;93250.84;;;14.92;73.17
11806;BME280;5960;42.602;23.482;2022-09-13T00:13:46;93257.50;;;14.83;73.41
11806;BME280;5960;42.602;23.482;2022-09-13T00:16:15;93253.50;;;14.73;73.79
11806;BME280;5960;42.602;23.482;2022-09-13T00:18:42;93246.81;;;14.71;74.09
11806;BME280;5960;42.602;23.482;2022-09-13T00:21:11;93240.69;;;14.70;74.32
11806;BME280;5960;42.602;23.482;2022-09-13T00:23:39;93242.22;;;14.78;74.15
11806;BME280;5960;42.602;23.482;2022-09-13T00:26:08;93232.38;;;14.85;73.92
11806;BME280;5960;42.602;23.482;2022-09-13T00:28:35;93230.38;;;14.81;73.94
11806;BME280;5960;42.602;23.482;2022-09-13T00:31:03;93231.63;;;14.78;74.04
11806;BME280;5960;42.602;23.482;2022-09-13T00:33:30;93229.19;;;14.77;74.32
11806;BME280;5960;42.602;23.482;2022-09-13T00:35:57;93217.47;;;14.84;74.17
11806;BME280;5960;42.602;23.482;2022-09-13T00:38:25;93218.22;;;14.92;74.00
11806;BME280;5960;42.602;23.482;2022-09-13T00:40:52;93220.22;;;14.78;74.47
11806;BME280;5960;42.602;23.482;2022-09-13T00:43:20;93223.56;;;14.66;75.06
11806;BME280;5960;42.602;23.482;2022-09-13T00:46:05;93224.50;;;14.79;74.98
11806;BME280;5960;42.602;23.482;2022-09-13T00:48:33;93227.72;;;14.81;74.77
11806;BME280;5960;42.602;23.482;2022-09-13T00:51:01;93224.91;;;14.94;74.54
11806;BME280;5960;42.602;23.482;2022-09-13T00:53:32;93213.78;;;15.04;73.90
11806;BME280;5960;42.602;23.482;2022-09-13T00:56:02;93225.06;;;14.99;74.36
11806;BME280;5960;42.602;23.482;2022-09-13T00:58:39;93217.63;;;15.08;73.84
11806;BME280;5960;42.602;23.482;2022-09-13T01:01:09;93218.66;;;15.07;73.94
11806;BME280;5960;42.602;23.482;2022-09-13T01:03:37;93219.00;;;15.11;73.82
11806;BME280;5960;42.602;23.482;2022-09-13T01:06:07;93215.75;;;15.09;74.12
11806;BME280;5960;42.602;23.482;2022-09-13T01:08:38;93210.84;;;15.12;73.98
11806;BME280;5960;42.602;23.482;2022-09-13T01:11:11;93209.81;;;15.13;73.88
11806;BME280;5960;42.602;23.482;2022-09-13T01:13:43;93206.84;;;15.22;73.62
11806;BME280;5960;42.602;23.482;2022-09-13T01:16:10;93211.34;;;15.21;73.74
11806;BME280;5960;42.602;23.482;2022-09-13T01:18:37;93202.13;;;15.24;73.49
11806;BME280;5960;42.602;23.482;2022-09-13T01:21:26;93204.25;;;15.15;73.65
11806;BME280;5960;42.602;23.482;2022-09-13T01:24:21;93200.59;;;15.16;73.91
11806;BME280;5960;42.602;23.482;2022-09-13T01:27:32;93207.66;;;15.22;73.66
11806;BME280;5960;42.602;23.482;2022-09-13T01:30:20;93208.84;;;15.26;73.41
11806;BME280;5960;42.602;23.482;2022-09-13T01:33:15;93205.16;;;15.27;73.32
11806;BME280;5960;42.602;23.482;2022-09-13T01:35:59;93197.19;;;15.27;73.66
11806;BME280;5960;42.602;23.482;2022-09-13T01:38:40;93196.00;;;15.23;73.64
11806;BME280;5960;42.602;23.482;2022-09-13T01:41:21;93192.19;;;15.19;73.58
11806;BME280;5960;42.602;23.482;2022-09-13T01:43:55;93194.84;;;15.19;73.65
11806;BME280;5960;42.602;23.482;2022-09-13T01:46:30;93188.00;;;15.11;73.82
11806;BME280;5960;42.602;23.482;2022-09-13T01:49:02;93188.78;;;15.12;74.10
11806;BME280;5960;42.602;23.482;2022-09-13T01:51:38;93189.97;;;15.16;73.79
11806;BME280;5960;42.602;23.482;2022-09-13T01:54:14;93194.25;;;15.17;73.80
11806;BME280;5960;42.602;23.482;2022-09-13T01:56:50;93190.78;;;15.16;73.63
11806;BME280;5960;42.602;23.482;2022-09-13T01:59:23;93187.56;;;15.14;73.87
11806;BME280;5960;42.602;23.482;2022-09-13T02:01:59;93190.13;;;15.21;73.71
11806;BME280;5960;42.602;23.482;2022-09-13T02:04:32;93189.09;;;15.22;73.62
11806;BME280;5960;42.602;23.482;2022-09-13T02:07:05;93181.72;;;15.24;73.57
11806;BME280;5960;42.602;23.482;2022-09-13T02:09:41;93192.78;;;15.21;73.74
11806;BME280;5960;42.602;23.482;2022-09-13T02:12:14;93191.88;;;15.27;73.71
11806;BME280;5960;42.602;23.482;2022-09-13T02:14:43;93191.88;;;15.27;73.19
11806;BME280;5960;42.602;23.482;2022-09-13T02:17:17;93203.63;;;15.31;73.38
11806;BME280;5960;42.602;23.482;2022-09-13T02:19:50;93195.91;;;15.30;73.43
11806;BME280;5960;42.602;23.482;2022-09-13T02:22:24;93188.41;;;15.27;73.52
11806;BME280;5960;42.602;23.482;2022-09-13T02:24:54;93186.88;;;15.19;73.70
11806;BME280;5960;42.602;23.482;2022-09-13T02:27:25;93188.72;;;15.18;73.82
11806;BME280;5960;42.602;23.482;2022-09-13T02:29:57;93189.38;;;15.14;73.94
11806;BME280;5960;42.602;23.482;2022-09-13T02:32:29;93184.22;;;15.19;73.71
11806;BME280;5960;42.602;23.482;2022-09-13T02:35:00;93186.63;;;15.20;74.00
11806;BME280;5960;42.602;23.482;2022-09-13T02:37:31;93182.38;;;15.19;73.87
11806;BME280;5960;42.602;23.482;2022-09-13T02:40:03;93187.91;;;15.18;73.83
11806;BME280;5960;42.602;23.482;2022-09-13T02:42:34;93183.63;;;15.17;73.83
11806;BME280;5960;42.602;23.482;2022-09-13T02:45:03;93188.69;;;15.07;73.99
11806;BME280;5960;42.602;23.482;2022-09-13T02:47:41;93184.00;;;15.02;74.18
11806;BME280;5960;42.602;23.482;2022-09-13T02:50:30;93186.59;;;14.90;74.52
11806;BME280;5960;42.602;23.482;2022-09-13T02:53:03;93185.31;;;14.81;75.03
11806;BME280;5960;42.602;23.482;2022-09-13T02:55:40;93185.34;;;14.74;75.32
11806;BME280;5960;42.602;23.482;2022-09-13T02:58:11;93185.94;;;14.76;75.28
11806;BME280;5960;42.602;23.482;2022-09-13T03:00:40;93183.00;;;14.66;75.67
11806;BME280;5960;42.602;23.482;2022-09-13T03:03:10;93194.25;;;14.61;75.92
11806;BME280;5960;42.602;23.482;2022-09-13T03:05:38;93188.81;;;14.56;76.00
11806;BME280;5960;42.602;23.482;2022-09-13T03:08:06;93191.66;;;14.54;76.13
11806;BME280;5960;42.602;23.482;2022-09-13T03:10:42;93189.41;;;14.58;76.20
11806;BME280;5960;42.602;23.482;2022-09-13T03:13:26;93191.72;;;14.66;75.88
11806;BME280;5960;42.602;23.482;2022-09-13T03:16:06;93192.56;;;14.67;75.72
11806;BME280;5960;42.602;23.482;2022-09-13T03:18:45;93194.81;;;14.63;75.60
11806;BME280;5960;42.602;23.482;2022-09-13T03:21:27;93202.66;;;14.58;75.71
11806;BME280;5960;42.602;23.482;2022-09-13T03:24:06;93201.03;;;14.57;76.04
11806;BME280;5960;42.602;23.482;2022-09-13T03:26:44;93192.47;;;14.55;76.03
11806;BME280;5960;42.602;23.482;2022-09-13T03:29:25;93195.25;;;14.41;76.02
11806;BME280;5960;42.602;23.482;2022-09-13T03:32:07;93192.47;;;14.36;76.39
11806;BME280;5960;42.602;23.482;2022-09-13T03:34:44;93198.94;;;14.40;76.51
11806;BME280;5960;42.602;23.482;2022-09-13T03:37:21;93202.03;;;14.37;76.20
11806;BME280;5960;42.602;23.482;2022-09-13T03:39:54;93201.00;;;14.38;76.34
11806;BME280;5960;42.602;23.482;2022-09-13T03:42:27;93195.16;;;14.29;76.58
11806;BME280;5960;42.602;23.482;2022-09-13T03:44:56;93193.66;;;14.15;76.68
11806;BME280;5960;42.602;23.482;2022-09-13T03:47:27;93191.94;;;14.02;77.50
11806;BME280;5960;42.602;23.482;2022-09-13T03:49:58;93194.94;;;14.12;77.23
11806;BME280;5960;42.602;23.482;2022-09-13T03:52:26;93194.38;;;14.04;77.26
11806;BME280;5960;42.602;23.482;2022-09-13T03:54:53;93191.75;;;14.04;77.44
11806;BME280;5960;42.602;23.482;2022-09-13T03:57:20;93191.50;;;14.05;76.99
11806;BME280;5960;42.602;23.482;2022-09-13T03:59:49;93199.81;;;14.09;77.36
11806;BME280;5960;42.602;23.482;2022-09-13T04:02:17;93195.94;;;14.11;77.10
11806;BME280;5960;42.602;23.482;2022-09-13T04:04:44;93204.50;;;14.13;76.59
11806;BME280;5960;42.602;23.482;2022-09-13T04:07:16;93198.59;;;14.11;76.77
11806;BME280;5960;42.602;23.482;2022-09-13T04:09:44;93208.09;;;14.19;76.45
11806;BME280;5960;42.602;23.482;2022-09-13T04:12:11;93198.72;;;14.17;76.55
11806;BME280;5960;42.602;23.482;2022-09-13T04:14:38;93202.88;;;14.12;76.24
11806;BME280;5960;42.602;23.482;2022-09-13T04:17:05;93202.00;;;13.93;77.13
11806;BME280;5960;42.602;23.482;2022-09-13T04:19:32;93199.28;;;14.00;76.87
11806;BME280;5960;42.602;23.482;2022-09-13T04:21:58;93199.28;;;14.00;76.92
11806;BME280;5960;42.602;23.482;2022-09-13T04:24:28;93203.38;;;14.03;76.62
11806;BME280;5960;42.602;23.482;2022-09-13T04:26:56;93208.19;;;14.06;76.62
11806;BME280;5960;42.602;23.482;2022-09-13T04:29:23;93204.94;;;14.10;76.49
11806;BME280;5960;42.602;23.482;2022-09-13T04:31:52;93205.03;;;14.22;75.96
11806;BME280;5960;42.602;23.482;2022-09-13T04:34:19;93206.59;;;14.30;75.57
11806;BME280;5960;42.602;23.482;2022-09-13T04:36:48;93217.47;;;14.40;75.11
11806;BME280;5960;42.602;23.482;2022-09-13T04:39:15;93210.41;;;14.34;75.18
11806;BME280;5960;42.602;23.482;2022-09-13T04:41:44;93214.47;;;14.37;74.91
11806;BME280;5960;42.602;23.482;2022-09-13T04:44:14;93216.03;;;14.44;74.67
11806;BME280;5960;42.602;23.482;2022-09-13T04:46:41;93216.78;;;14.52;74.42
11806;BME280;5960;42.602;23.482;2022-09-13T04:49:08;93219.16;;;14.60;74.47
11806;BME280;5960;42.602;23.482;2022-09-13T04:51:35;93220.41;;;14.76;73.26
11806;BME280;5960;42.602;23.482;2022-09-13T04:54:02;93235.25;;;14.84;73.21
11806;BME280;5960;42.602;23.482;2022-09-13T04:56:29;93223.31;;;14.93;72.87
11806;BME280;5960;42.602;23.482;2022-09-13T04:58:57;93233.19;;;15.04;72.09
11806;BME280;5960;42.602;23.482;2022-09-13T05:01:24;93225.94;;;15.12;71.78
11806;BME280;5960;42.602;23.482;2022-09-13T05:03:51;93237.00;;;15.27;71.68
11806;BME280;5960;42.602;23.482;2022-09-13T05:06:18;93238.72;;;15.33;71.46
11806;BME280;5960;42.602;23.482;2022-09-13T05:08:49;93239.03;;;15.44;71.67
11806;BME280;5960;42.602;23.482;2022-09-13T05:11:16;93237.09;;;15.51;71.11
11806;BME280;5960;42.602;23.482;2022-09-13T05:13:43;93238.38;;;15.60;70.77
11806;BME280;5960;42.602;23.482;2022-09-13T05:16:14;93243.34;;;15.57;70.72
11806;BME280;5960;42.602;23.482;2022-09-13T05:18:41;93236.22;;;15.69;70.76
11806;BME280;5960;42.602;23.482;2022-09-13T05:21:08;93235.31;;;15.75;70.42
11806;BME280;5960;42.602;23.482;2022-09-13T05:23:34;93237.97;;;15.75;69.64
11806;BME280;5960;42.602;23.482;2022-09-13T05:26:03;93232.34;;;15.84;69.99
11806;BME280;5960;42.602;23.482;2022-09-13T05:28:32;93242.59;;;15.99;68.53
11806;BME280;5960;42.602;23.482;2022-09-13T05:31:01;93238.22;;;16.04;68.85
11806;BME280;5960;42.602;23.482;2022-09-13T05:33:32;93238.13;;;16.23;68.04
11806;BME280;5960;42.602;23.482;2022-09-13T05:35:59;93239.88;;;16.29;67.45
11806;BME280;5960;42.602;23.482;2022-09-13T05:38:26;93243.69;;;16.21;67.30
11806;BME280;5960;42.602;23.482;2022-09-13T05:40:53;93248.75;;;16.35;67.31
11806;BME280;5960;42.602;23.482;2022-09-13T05:43:21;93246.47;;;16.50;67.05
11806;BME280;5960;42.602;23.482;2022-09-13T05:45:48;93248.44;;;16.67;66.67
11806;BME280;5960;42.602;23.482;2022-09-13T05:48:15;93243.56;;;16.88;65.65
11806;BME280;5960;42.602;23.482;2022-09-13T05:50:43;93242.88;;;17.04;64.88
11806;BME280;5960;42.602;23.482;2022-09-13T05:53:09;93244.22;;;17.19;64.35
11806;BME280;5960;42.602;23.482;2022-09-13T05:55:36;93245.03;;;17.31;64.36
11806;BME280;5960;42.602;23.482;2022-09-13T05:58:03;93247.97;;;17.47;64.35
11806;BME280;5960;42.602;23.482;2022-09-13T06:00:30;93249.44;;;17.54;63.16
11806;BME280;5960;42.602;23.482;2022-09-13T06:02:57;93249.75;;;17.70;63.28
11806;BME280;5960;42.602;23.482;2022-09-13T06:05:24;93242.38;;;17.60;62.38
11806;BME280;5960;42.602;23.482;2022-09-13T06:07:52;93249.22;;;17.56;62.30
11806;BME280;5960;42.602;23.482;2022-09-13T06:10:19;93243.91;;;17.56;62.55
11806;BME280;5960;42.602;23.482;2022-09-13T06:12:46;93245.78;;;17.72;62.44
11806;BME280;5960;42.602;23.482;2022-09-13T06:15:16;93242.94;;;17.91;62.71
11806;BME280;5960;42.602;23.482;2022-09-13T06:17:42;93250.91;;;18.20;62.61
11806;BME280;5960;42.602;23.482;2022-09-13T06:20:09;93249.63;;;18.40;61.21
11806;BME280;5960;42.602;23.482;2022-09-13T06:22:36;93252.94;;;18.47;60.38
11806;BME280;5960;42.602;23.482;2022-09-13T06:25:05;93261.50;;;18.66;60.27
11806;BME280;5960;42.602;23.482;2022-09-13T06:27:31;93255.66;;;18.86;60.01
11806;BME280;5960;42.602;23.482;2022-09-13T06:29:58;93255.09;;;19.01;59.97
11806;BME280;5960;42.602;23.482;2022-09-13T06:32:25;93265.66;;;19.13;59.64
11806;BME280;5960;42.602;23.482;2022-09-13T06:34:51;93263.31;;;19.39;58.98
11806;BME280;5960;42.602;23.482;2022-09-13T06:37:18;93268.09;;;19.59;58.81
11806;BME280;5960;42.602;23.482;2022-09-13T06:39:46;93256.81;;;19.79;57.90
11806;BME280;5960;42.602;23.482;2022-09-13T06:42:14;93273.59;;;19.92;56.70
11806;BME280;5960;42.602;23.482;2022-09-13T06:44:41;93272.66;;;20.08;56.58
11806;BME280;5960;42.602;23.482;2022-09-13T06:47:07;93267.72;;;20.22;55.92
11806;BME280;5960;42.602;23.482;2022-09-13T06:49:35;93279.88;;;20.35;55.22
11806;BME280;5960;42.602;23.482;2022-09-13T06:52:02;93282.44;;;20.25;55.41
11806;BME280;5960;42.602;23.482;2022-09-13T06:54:28;93284.44;;;20.07;55.23
11806;BME280;5960;42.602;23.482;2022-09-13T06:56:55;93286.47;;;20.00;54.18
11806;BME280;5960;42.602;23.482;2022-09-13T06:59:23;93291.28;;;19.76;53.65
11806;BME280;5960;42.602;23.482;2022-09-13T07:01:50;93282.34;;;19.65;54.57
11806;BME280;5960;42.602;23.482;2022-09-13T07:04:17;93285.44;;;19.79;54.15
11806;BME280;5960;42.602;23.482;2022-09-13T07:06:45;93292.03;;;19.93;53.34
11806;BME280;5960;42.602;23.482;2022-09-13T07:09:13;93292.94;;;20.04;53.49
11806;BME280;5960;42.602;23.482;2022-09-13T07:11:41;93286.78;;;20.04;52.36
11806;BME280;5960;42.602;23.482;2022-09-13T07:14:12;93284.63;;;20.01;53.30
11806;BME280;5960;42.602;23.482;2022-09-13T07:16:41;93296.41;;;20.05;53.21
11806;BME280;5960;42.602;23.482;2022-09-13T07:19:12;93290.19;;;20.26;52.29
11806;BME280;5960;42.602;23.482;2022-09-13T07:21:39;93294.94;;;20.47;51.18
11806;BME280;5960;42.602;23.482;2022-09-13T07:24:06;93284.72;;;20.71;50.51
11806;BME280;5960;42.602;23.482;2022-09-13T07:26:33;93280.97;;;20.72;50.69
11806;BME280;5960;42.602;23.482;2022-09-13T07:29:02;93290.75;;;20.56;50.00
11806;BME280;5960;42.602;23.482;2022-09-13T07:31:31;93289.28;;;20.75;50.20
11806;BME280;5960;42.602;23.482;2022-09-13T07:34:00;93297.91;;;20.78;49.93
11806;BME280;5960;42.602;23.482;2022-09-13T07:36:28;93293.44;;;20.61;50.49
11806;BME280;5960;42.602;23.482;2022-09-13T07:38:56;93297.13;;;20.82;49.91
11806;BME280;5960;42.602;23.482;2022-09-13T07:41:25;93297.16;;;20.55;50.32
11806;BME280;5960;42.602;23.482;2022-09-13T07:43:52;93295.41;;;20.38;50.22
11806;BME280;5960;42.602;23.482;2022-09-13T07:46:20;93291.31;;;20.63;50.17
11806;BME280;5960;42.602;23.482;2022-09-13T07:48:47;93299.56;;;20.56;50.38
11806;BME280;5960;42.602;23.482;2022-09-13T07:51:16;93304.50;;;20.70;50.55
11806;BME280;5960;42.602;23.482;2022-09-13T07:53:45;93303.38;;;20.93;48.57
11806;BME280;5960;42.602;23.482;2022-09-13T07:56:13;93306.50;;;21.17;48.12
11806;BME280;5960;42.602;23.482;2022-09-13T07:58:41;93301.47;;;21.37;48.13
11806;BME280;5960;42.602;23.482;2022-09-13T08:01:10;93312.00;;;21.00;48.67
11806;BME280;5960;42.602;23.482;2022-09-13T08:03:38;93302.91;;;21.01;47.04
11806;BME280;5960;42.602;23.482;2022-09-13T08:06:06;93305.53;;;21.39;46.01
11806;BME280;5960;42.602;23.482;2022-09-13T08:08:35;93305.78;;;21.86;47.00
11806;BME280;5960;42.602;23.482;2022-09-13T08:11:04;93307.16;;;22.09;45.08
11806;BME280;5960;42.602;23.482;2022-09-13T08:13:32;93311.44;;;21.94;45.06
11806;BME280;5960;42.602;23.482;2022-09-13T08:16:00;93311.28;;;21.63;44.21
11806;BME280;5960;42.602;23.482;2022-09-13T08:18:27;93309.50;;;21.79;44.26
11806;BME280;5960;42.602;23.482;2022-09-13T08:20:55;93311.25;;;22.32;42.82
11806;BME280;5960;42.602;23.482;2022-09-13T08:23:22;93298.69;;;22.90;42.63
11806;BME280;5960;42.602;23.482;2022-09-13T08:25:50;93305.66;;;23.27;41.29
11806;BME280;5960;42.602;23.482;2022-09-13T08:28:18;93302.06;;;23.63;40.92
11806;BME280;5960;42.602;23.482;2022-09-13T08:30:46;93298.59;;;23.52;40.61
11806;BME280;5960;42.602;23.482;2022-09-13T08:33:14;93303.25;;;23.25;40.62
11806;BME280;5960;42.602;23.482;2022-09-13T08:35:48;93301.06;;;23.12;41.25
11806;BME280;5960;42.602;23.482;2022-09-13T08:38:15;93299.22;;;23.07;41.17
11806;BME280;5960;42.602;23.482;2022-09-13T08:40:44;93296.53;;;22.97;40.73
11806;BME280;5960;42.602;23.482;2022-09-13T08:43:21;93294.13;;;22.69;41.86
11806;BME280;5960;42.602;23.482;2022-09-13T08:45:56;93285.50;;;23.14;40.37
11806;BME280;5960;42.602;23.482;2022-09-13T08:48:31;93294.06;;;23.32;39.01
11806;BME280;5960;42.602;23.482;2022-09-13T08:51:02;93292.91;;;23.69;37.68
11806;BME280;5960;42.602;23.482;2022-09-13T08:53:30;93294.63;;;24.10;37.78
11806;BME280;5960;42.602;23.482;2022-09-13T08:56:02;93290.06;;;24.10;38.03
11806;BME280;5960;42.602;23.482;2022-09-13T08:58:47;93290.69;;;24.37;38.04
11806;BME280;5960;42.602;23.482;2022-09-13T09:01:23;93285.47;;;24.90;36.47
11806;BME280;5960;42.602;23.482;2022-09-13T09:04:01;93295.91;;;25.27;35.79
11806;BME280;5960;42.602;23.482;2022-09-13T09:06:30;93288.94;;;24.96;36.86
11806;BME280;5960;42.602;23.482;2022-09-13T09:09:02;93293.97;;;24.68;37.88
11806;BME280;5960;42.602;23.482;2022-09-13T09:11:34;93289.31;;;25.14;36.95
11806;BME280;5960;42.602;23.482;2022-09-13T09:14:10;93288.81;;;24.77;35.82
11806;BME280;5960;42.602;23.482;2022-09-13T09:16:44;93286.53;;;24.94;35.61
11806;BME280;5960;42.602;23.482;2022-09-13T09:19:18;93293.09;;;25.42;35.66
11806;BME280;5960;42.602;23.482;2022-09-13T09:21:49;93294.91;;;26.20;33.43
11806;BME280;5960;42.602;23.482;2022-09-13T09:24:20;93297.19;;;26.32;32.89
11806;BME280;5960;42.602;23.482;2022-09-13T09:26:47;93299.03;;;25.68;32.79
11806;BME280;5960;42.602;23.482;2022-09-13T09:29:20;93286.91;;;25.36;33.91
11806;BME280;5960;42.602;23.482;2022-09-13T09:32:00;93286.31;;;25.93;33.10
11806;BME280;5960;42.602;23.482;2022-09-13T09:34:43;93278.72;;;26.58;31.50
11806;BME280;5960;42.602;23.482;2022-09-13T09:37:18;93277.13;;;25.94;33.59
11806;BME280;5960;42.602;23.482;2022-09-13T09:39:47;93285.13;;;26.24;32.86
11806;BME280;5960;42.602;23.482;2022-09-13T09:42:15;93278.25;;;26.70;30.91
11806;BME280;5960;42.602;23.482;2022-09-13T09:44:47;93274.84;;;26.26;31.61
11806;BME280;5960;42.602;23.482;2022-09-13T09:47:18;93273.59;;;25.75;32.03
11806;BME280;5960;42.602;23.482;2022-09-13T09:49:47;93278.28;;;25.10;32.60
11806;BME280;5960;42.602;23.482;2022-09-13T09:52:38;93271.25;;;24.45;34.23
11806;BME280;5960;42.602;23.482;2022-09-13T09:55:16;93266.69;;;24.06;34.90
11806;BME280;5960;42.602;23.482;2022-09-13T09:57:54;93261.84;;;23.92;35.58
11806;BME280;5960;42.602;23.482;2022-09-13T10:00:24;93267.88;;;24.24;34.84
11806;BME280;5960;42.602;23.482;2022-09-13T10:02:53;93259.19;;;24.37;34.97
11806;BME280;5960;42.602;23.482;2022-09-13T10:05:22;93257.25;;;24.03;34.92
11806;BME280;5960;42.602;23.482;2022-09-13T10:07:56;93263.34;;;24.19;36.13
11806;BME280;5960;42.602;23.482;2022-09-13T10:10:28;93259.56;;;24.25;35.57
11806;BME280;5960;42.602;23.482;2022-09-13T10:12:59;93250.59;;;24.70;35.10
11806;BME280;5960;42.602;23.482;2022-09-13T10:15:29;93258.56;;;25.68;33.08
11806;BME280;5960;42.602;23.482;2022-09-13T10:18:13;93257.00;;;26.63;32.96
11806;BME280;5960;42.602;23.482;2022-09-13T10:20:41;93248.19;;;27.38;31.82
11806;BME280;5960;42.602;23.482;2022-09-13T10:23:19;93251.22;;;27.78;28.77
11806;BME280;5960;42.602;23.482;2022-09-13T10:25:58;93249.06;;;26.53;31.27
11806;BME280;5960;42.602;23.482;2022-09-13T10:28:27;93248.81;;;26.11;30.28
11806;BME280;5960;42.602;23.482;2022-09-13T10:30:57;93251.28;;;26.12;30.99
11806;BME280;5960;42.602;23.482;2022-09-13T10:33:28;93243.53;;;26.25;30.82
11806;BME280;5960;42.602;23.482;2022-09-13T10:35:59;93237.44;;;26.52;30.91
11806;BME280;5960;42.602;23.482;2022-09-13T10:38:30;93236.25;;;27.25;31.90
11806;BME280;5960;42.602;23.482;2022-09-13T10:40:58;93233.00;;;27.56;30.37
11806;BME280;5960;42.602;23.482;2022-09-13T10:43:29;93226.69;;;26.85;30.36
11806;BME280;5960;42.602;23.482;2022-09-13T10:45:59;93235.63;;;26.09;31.40
11806;BME280;5960;42.602;23.482;2022-09-13T10:48:28;93235.97;;;25.83;31.37
11806;BME280;5960;42.602;23.482;2022-09-13T10:51:01;93221.44;;;25.79;30.36
11806;BME280;5960;42.602;23.482;2022-09-13T10:53:34;93222.91;;;26.10;30.88
11806;BME280;5960;42.602;23.482;2022-09-13T10:56:01;93215.28;;;26.36;30.59
11806;BME280;5960;42.602;23.482;2022-09-13T10:58:29;93221.16;;;25.81;31.51
11806;BME280;5960;42.602;23.482;2022-09-13T11:01:28;93216.69;;;24.98;32.87
11806;BME280;5960;42.602;23.482;2022-09-13T11:04:25;93212.97;;;25.18;33.93
11806;BME280;5960;42.602;23.482;2022-09-13T11:07:03;93211.56;;;26.32;31.39
11806;BME280;5960;42.602;23.482;2022-09-13T11:09:40;93207.88;;;27.08;31.02
11806;BME280;5960;42.602;23.482;2022-09-13T11:12:14;93215.34;;;27.72;30.35
11806;BME280;5960;42.602;23.482;2022-09-13T11:14:53;93209.56;;;28.38;28.19
11806;BME280;5960;42.602;23.482;2022-09-13T11:17:34;93209.34;;;28.49;28.72
11806;BME280;5960;42.602;23.482;2022-09-13T11:20:20;93211.50;;;28.83;27.12
11806;BME280;5960;42.602;23.482;2022-09-13T11:23:28;93209.84;;;28.96;26.84
11806;BME280;5960;42.602;23.482;2022-09-13T11:26:20;93208.03;;;28.92;26.97
11806;BME280;5960;42.602;23.482;2022-09-13T11:28:56;93206.19;;;29.01;27.28
11806;BME280;5960;42.602;23.482;2022-09-13T11:31:37;93203.06;;;29.17;26.72
11806;BME280;5960;42.602;23.482;2022-09-13T11:34:29;93204.25;;;29.33;26.69
11806;BME280;5960;42.602;23.482;2022-09-13T11:37:11;93194.47;;;29.55;27.02
11806;BME280;5960;42.602;23.482;2022-09-13T11:39:50;93205.63;;;29.22;26.92
11806;BME280;5960;42.602;23.482;2022-09-13T11:42:31;93188.25;;;29.23;26.91
11806;BME280;5960;42.602;23.482;2022-09-13T11:45:18;93189.22;;;29.27;26.43
11806;BME280;5960;42.602;23.482;2022-09-13T11:47:56;93205.94;;;29.11;26.34
11806;BME280;5960;42.602;23.482;2022-09-13T11:50:38;93188.09;;;28.65;27.00
11806;BME280;5960;42.602;23.482;2022-09-13T11:53:28;93191.50;;;29.02;28.20
11806;BME280;5960;42.602;23.482;2022-09-13T11:56:02;93189.59;;;29.34;26.89
11806;BME280;5960;42.602;23.482;2022-09-13T11:58:34;93192.72;;;29.59;26.69
11806;BME280;5960;42.602;23.482;2022-09-13T12:01:05;93198.44;;;29.49;25.94
11806;BME280;5960;42.602;23.482;2022-09-13T12:03:38;93197.00;;;29.60;25.81
11806;BME280;5960;42.602;23.482;2022-09-13T12:06:11;93192.75;;;29.77;26.17
11806;BME280;5960;42.602;23.482;2022-09-13T12:08:44;93186.34;;;29.72;25.47
11806;BME280;5960;42.602;23.482;2022-09-13T12:11:15;93194.78;;;29.22;26.49
11806;BME280;5960;42.602;23.482;2022-09-13T12:13:46;93182.47;;;28.61;26.94
11806;BME280;5960;42.602;23.482;2022-09-13T12:16:18;93178.00;;;28.79;27.15
11806;BME280;5960;42.602;23.482;2022-09-13T12:18:49;93174.00;;;29.08;26.94
11806;BME280;5960;42.602;23.482;2022-09-13T12:21:20;93179.81;;;28.70;27.17
11806;BME280;5960;42.602;23.482;2022-09-13T12:23:52;93179.09;;;28.78;27.08
11806;BME280;5960;42.602;23.482;2022-09-13T12:26:23;93175.34;;;29.28;26.11
11806;BME280;5960;42.602;23.482;2022-09-13T12:28:54;93179.41;;;29.40;25.74
11806;BME280;5960;42.602;23.482;2022-09-13T12:31:23;93181.75;;;29.33;26.03
11806;BME280;5960;42.602;23.482;2022-09-13T12:33:50;93171.25;;;29.00;26.37
11806;BME280;5960;42.602;23.482;2022-09-13T12:36:41;93172.69;;;28.74;26.43
11806;BME280;5960;42.602;23.482;2022-09-13T12:39:33;93175.31;;;29.20;27.00
11806;BME280;5960;42.602;23.482;2022-09-13T12:42:22;93170.22;;;29.27;27.22
11806;BME280;5960;42.602;23.482;2022-09-13T12:45:02;93170.53;;;29.57;26.02
11806;BME280;5960;42.602;23.482;2022-09-13T12:47:59;93173.13;;;29.88;26.21
11806;BME280;5960;42.602;23.482;2022-09-13T12:50:43;93168.53;;;30.07;26.21
11806;BME280;5960;42.602;23.482;2022-09-13T12:53:46;93169.97;;;30.39;25.64
11806;BME280;5960;42.602;23.482;2022-09-13T12:56:32;93174.47;;;30.26;24.67
11806;BME280;5960;42.602;23.482;2022-09-13T12:59:24;93173.50;;;30.13;24.70
11806;BME280;5960;42.602;23.482;2022-09-13T13:02:00;93167.53;;;29.94;24.53
11806;BME280;5960;42.602;23.482;2022-09-13T13:04:31;93171.25;;;29.98;25.04
11806;BME280;5960;42.602;23.482;2022-09-13T13:07:02;93169.09;;;29.68;25.55
11806;BME280;5960;42.602;23.482;2022-09-13T13:09:37;93178.94;;;29.06;25.87
11806;BME280;5960;42.602;23.482;2022-09-13T13:12:05;93183.47;;;28.06;27.59
11806;BME280;5960;42.602;23.482;2022-09-13T13:14:47;93179.75;;;27.23;28.89
11806;BME280;5960;42.602;23.482;2022-09-13T13:17:39;93176.34;;;27.31;28.14
11806;BME280;5960;42.602;23.482;2022-09-13T13:23:31;93181.69;;;28.38;27.67
11806;BME280;5960;42.602;23.482;2022-09-13T13:26:09;93179.31;;;28.68;27.41
11806;BME280;5960;42.602;23.482;2022-09-13T13:29:04;93175.28;;;29.11;26.98
11806;BME280;5960;42.602;23.482;2022-09-13T13:31:40;93174.09;;;28.72;27.38